»·PEaware :: N550EJ KNFG-L35

N550EJ :: KNFG-L35

FLIGHT INFORMATION

Flight Status: Arrived
Operator: Privately registered:
United States
More flights under this callsign
Pilot: Fernando A. (32251)
Aircraft: Diamond DA-40
(DA40)
More flights by this aircraft type
Origin: KNFG Camp Pendleton MCAS
United States
Destination: L35 Big Bear City
United States
More flights between these airports :: More routes between these airports
Route:
File this flight plan on PilotEdge
Remarks:
Altitude:
(Current/Filed)
7,500ft
Speed:
(Current/Filed)
110kts
Departed: 21-Nov-20 02:10 PM
Arrived: 21-Nov-20 02:43 PM
Distance/Time
Traveled:
63nm/0:32
Distance/Time
To Go:
Arrived

Flight Plot

Page will automatically refresh every two minutes.

Flight plan parsing failed; only flown route is shown


Map Options




Map Legend


Flown Route
Filed Route
Departure Airport
Arrival Airport
Navaid (VOR, NDB)
Fix

Horizontal Profiles

Position Reports

Time Latitude Longitude Heading Altitude Ground
Speed
21-Nov-20 13:52 33.302200 -117.350678 225 75ft 0kts
21-Nov-20 13:53 33.302200 -117.350678 225 75ft 0kts
21-Nov-20 13:54 33.302200 -117.350678 225 75ft 0kts
21-Nov-20 13:55 33.302200 -117.350678 225 75ft 0kts
21-Nov-20 13:56 33.302200 -117.350678 225 75ft 0kts
21-Nov-20 13:57 33.302200 -117.350678 225 75ft 0kts
21-Nov-20 13:58 33.302200 -117.350678 225 75ft 0kts
21-Nov-20 13:59 33.302200 -117.350678 225 75ft 0kts
21-Nov-20 14:00 33.302200 -117.350678 225 75ft 0kts
21-Nov-20 14:01 33.302200 -117.350678 225 75ft 0kts
21-Nov-20 14:03 33.302200 -117.350678 225 75ft 0kts
21-Nov-20 14:04 33.302200 -117.350678 225 75ft 0kts
21-Nov-20 14:05 33.302200 -117.350678 225 75ft 0kts
21-Nov-20 14:06 33.302200 -117.350678 225 75ft 0kts
21-Nov-20 14:07 33.302809 -117.350748 44 76ft 10kts
21-Nov-20 14:08 33.305537 -117.348139 1 79ft 11kts
21-Nov-20 14:09 33.306564 -117.349058 222 81ft 18kts
21-Nov-20 14:10 33.293905 -117.364976 234 539ft 77kts
21-Nov-20 14:11 33.308134 -117.362624 36 1312ft 77kts
21-Nov-20 14:12 33.325925 -117.347412 31 2117ft 77kts
21-Nov-20 14:13 33.345071 -117.334133 24 2890ft 80kts
21-Nov-20 14:14 33.365802 -117.321991 22 3628ft 86kts
21-Nov-20 14:15 33.388114 -117.310554 22 4355ft 93kts
21-Nov-20 14:16 33.413158 -117.297707 23 5108ft 97kts
21-Nov-20 14:17 33.438163 -117.284877 24 5863ft 100kts
21-Nov-20 14:17 33.460058 -117.273625 23 6454ft 104kts
21-Nov-20 14:19 33.491891 -117.257253 24 7280ft 108kts
21-Nov-20 14:19 33.515353 -117.245175 24 7891ft 110kts
21-Nov-20 14:20 33.543741 -117.230551 24 8582ft 110kts
21-Nov-20 14:22 33.576850 -117.213483 24 9374ft 114kts
21-Nov-20 14:22 33.604187 -117.199362 23 9515ft 140kts
21-Nov-20 14:24 33.647965 -117.176770 23 9508ft 148kts
21-Nov-20 14:24 33.679638 -117.160401 23 9503ft 148kts
21-Nov-20 14:26 33.723678 -117.137607 23 9506ft 148kts
21-Nov-20 14:26 33.755233 -117.121264 23 9509ft 148kts
21-Nov-20 14:27 33.793241 -117.101560 24 9509ft 148kts
21-Nov-20 14:28 33.830902 -117.082018 23 9512ft 147kts
21-Nov-20 14:29 33.870576 -117.072808 2 9513ft 147kts
21-Nov-20 14:30 33.911684 -117.070516 2 9519ft 148kts
21-Nov-20 14:31 33.952846 -117.068190 2 9519ft 147kts
21-Nov-20 14:32 33.993869 -117.065884 2 9522ft 147kts
21-Nov-20 14:33 34.034709 -117.063618 2 9523ft 147kts
21-Nov-20 14:34 34.075613 -117.061336 2 9525ft 146kts
21-Nov-20 14:35 34.115821 -117.054683 22 9531ft 147kts
21-Nov-20 14:36 34.154030 -117.037617 18 9536ft 146kts
21-Nov-20 14:37 34.192594 -117.021253 20 9521ft 147kts
21-Nov-20 14:38 34.229595 -117.001033 37 9456ft 147kts
21-Nov-20 14:39 34.250273 -116.961647 66 8529ft 133kts
21-Nov-20 14:40 34.262827 -116.919979 78 7920ft 127kts
21-Nov-20 14:41 34.263717 -116.883893 87 7270ft 93kts
21-Nov-20 14:42 34.263782 -116.859528 89 6743ft 16kts
21-Nov-20 14:43 34.263238 -116.857396 88 6746ft 9kts
21-Nov-20 14:44 34.262909 -116.854889 139 6747ft 2kts
21-Nov-20 14:45 34.263045 -116.854721 355 6747ft 0kts
21-Nov-20 14:46 34.263045 -116.854721 355 6747ft 0kts
21-Nov-20 14:47 34.263045 -116.854721 355 6747ft 0kts
21-Nov-20 14:48 34.263045 -116.854721 355 6747ft 0kts
21-Nov-20 14:49 34.263045 -116.854721 355 6747ft 0kts
21-Nov-20 14:50 34.263045 -116.854721 355 6747ft 0kts

Navigation Log

Ident Type
Flight plan parsing failed, navigation log unavailable